Time;durP1;ratioP1;P1;durP2;ratioP2;P2;SDS_P1;SDS_P2;PMS_P1;PMS_P2;Temp;Humidity;BMP_temperature;BMP_pressure;BME280_temperature;BME280_humidity;BME280_pressure;Samples;Min_cycle;Max_cycle;Signal;HPM_P1;HPM_P2
2022/12/08 00:02:04;;;;;;;9.70;9.20;;;3.90;94.10;;;;;;5012658;28;20083;-77
2022/12/08 00:09:20;;;;;;;10.55;10.05;;;3.90;94.10;;;;;;5029177;28;20034;-84
2022/12/08 00:10:00;;;;;;;9.85;9.35;;;3.90;94.10;;;;;;5015986;28;20047;-78
2022/12/08 00:12:26;;;;;;;10.00;9.50;;;3.90;94.10;;;;;;5029021;28;20029;-78
2022/12/08 00:14:53;;;;;;;9.77;9.27;;;3.90;94.10;;;;;;5012525;28;20033;-78
2022/12/08 00:17:19;;;;;;;10.23;9.73;;;4.00;94.10;;;;;;5012342;28;20035;-77
2022/12/08 00:19:44;;;;;;;9.68;9.18;;;4.00;94.20;;;;;;5029839;28;20128;-78
2022/12/08 00:22:11;;;;;;;10.80;10.30;;;4.00;94.20;;;;;;5028981;28;20041;-78
2022/12/08 00:24:39;;;;;;;10.43;9.93;;;4.10;94.20;;;;;;4996114;28;20030;-78
2022/12/08 00:27:06;;;;;;;10.30;9.80;;;4.00;94.10;;;;;;5029971;28;20033;-75
2022/12/08 00:29:31;;;;;;;11.90;11.40;;;4.00;94.00;;;;;;5028532;28;20369;-78
2022/12/08 00:31:57;;;;;;;13.90;13.30;;;3.90;94.00;;;;;;5012264;28;20119;-78
2022/12/08 00:34:23;;;;;;;14.20;13.60;;;3.70;94.10;;;;;;5028296;28;20569;-81
2022/12/08 00:36:49;;;;;;;16.30;15.60;;;3.60;93.90;;;;;;5024536;28;20390;-84
2022/12/08 00:39:16;;;;;;;16.98;16.27;;;3.60;93.90;;;;;;5029947;28;20104;-80
2022/12/08 00:44:26;;;;;;;18.50;17.70;;;3.40;93.90;;;;;;5029056;28;20044;-81
2022/12/08 00:46:52;;;;;;;18.90;18.10;;;3.30;93.90;;;;;;5012049;28;20505;-81
2022/12/08 00:49:18;;;;;;;18.23;17.48;;;3.30;93.90;;;;;;5029735;28;20050;-81
2022/12/08 00:51:44;;;;;;;;;;;3.20;93.90;;;;;;5028746;28;20021;-78
2022/12/08 00:54:10;;;;;;;20.35;19.55;;;3.20;94.00;;;;;;5028138;28;19905;-78
2022/12/08 00:56:36;;;;;;;21.13;20.33;;;3.10;93.90;;;;;;5029552;28;20056;-77
2022/12/08 00:59:04;;;;;;;20.08;19.27;;;3.10;93.90;;;;;;5028156;28;20033;-77
2022/12/08 01:01:30;;;;;;;21.98;21.08;;;3.00;93.90;;;;;;5028190;28;20033;-78
2022/12/08 01:03:56;;;;;;;21.85;20.95;;;3.00;93.90;;;;;;5028092;28;20413;-77
2022/12/08 01:06:21;;;;;;;21.60;20.70;;;3.00;93.90;;;;;;4995355;28;20064;-78
2022/12/08 01:08:47;;;;;;;22.52;21.63;;;2.90;93.90;;;;;;5011795;28;20524;-78
2022/12/08 01:11:16;;;;;;;22.58;21.67;;;2.90;93.90;;;;;;5011566;28;20055;-81
2022/12/08 01:13:42;;;;;;;21.77;20.88;;;2.80;93.90;;;;;;5028012;28;20021;-81
2022/12/08 01:16:08;;;;;;;22.88;21.98;;;2.80;93.90;;;;;;5028233;28;20040;-77
2022/12/08 01:18:34;;;;;;;20.67;19.88;;;2.70;93.80;;;;;;5028165;28;20053;-77
2022/12/08 01:21:07;;;;;;;22.38;21.48;;;2.70;93.90;;;;;;5027747;28;20413;-80
2022/12/08 01:23:33;;;;;;;22.50;21.60;;;2.60;93.90;;;;;;5011434;28;20033;-81
2022/12/08 01:26:07;;;;;;;20.38;19.58;;;2.60;93.90;;;;;;5011443;28;20038;-81
2022/12/08 01:28:33;;;;;;;20.10;19.30;;;2.50;93.90;;;;;;5028971;28;20025;-77
2022/12/08 01:31:00;;;;;;;21.90;21.00;;;2.50;93.90;;;;;;4994915;28;20044;-78
2022/12/08 01:33:26;;;;;;;21.70;20.80;;;2.50;93.90;;;;;;5027793;28;20033;-77
2022/12/08 01:35:52;;;;;;;21.75;20.85;;;2.50;93.90;;;;;;5029015;28;20031;-77
2022/12/08 01:38:18;;;;;;;;;;;2.50;93.90;;;;;;5027911;28;20040;-80
2022/12/08 01:40:44;;;;;;;22.00;21.10;;;2.50;93.90;;;;;;5027343;28;20361;-78
2022/12/08 01:43:17;;;;;;;21.40;20.50;;;2.50;93.80;;;;;;5011063;28;20033;-77
2022/12/08 01:45:43;;;;;;;21.83;20.92;;;2.40;93.80;;;;;;5027333;28;20034;-77
2022/12/08 01:48:19;;;;;;;20.27;19.48;;;2.40;93.80;;;;;;5027559;28;20018;-77
2022/12/08 01:50:47;;;;;;;21.40;20.50;;;2.40;93.80;;;;;;5027432;28;20036;-77
2022/12/08 01:53:31;;;;;;;21.73;20.83;;;2.40;93.80;;;;;;5027328;28;20086;-78
2022/12/08 01:56:11;;;;;;;21.50;20.60;;;2.40;93.80;;;;;;5027284;28;20029;-81
2022/12/08 01:58:42;;;;;;;20.67;19.88;;;2.40;93.80;;;;;;5028337;28;20025;-81
2022/12/08 02:01:08;;;;;;;20.55;19.75;;;2.40;93.90;;;;;;5027164;28;20090;-81
2022/12/08 02:03:50;;;;;;;20.75;19.95;;;2.30;93.80;;;;;;5028304;28;20022;-81
2022/12/08 02:06:17;;;;;;;20.52;19.73;;;2.30;93.80;;;;;;5036012;28;20516;-81
2022/12/08 02:08:44;;;;;;;19.83;19.02;;;2.30;93.80;;;;;;5027276;28;20037;-82
2022/12/08 02:11:11;;;;;;;19.00;18.20;;;2.30;93.80;;;;;;5027026;28;20029;-81
2022/12/08 02:13:38;;;;;;;20.50;19.70;;;2.30;93.90;;;;;;5026941;28;20029;-81
2022/12/08 02:16:07;;;;;;;20.45;19.65;;;2.20;93.80;;;;;;5010261;28;20025;-81
2022/12/08 02:18:41;;;;;;;19.95;19.15;;;2.30;93.90;;;;;;5026692;28;20255;-81
2022/12/08 02:21:12;;;;;;;20.23;19.42;;;2.30;93.90;;;;;;5026534;28;20060;-81
2022/12/08 02:24:08;;;;;;;19.83;19.02;;;2.30;93.90;;;;;;5026793;28;20127;-81
2022/12/08 02:26:48;;;;;;;20.92;20.13;;;2.20;93.80;;;;;;5027935;28;20473;-84
2022/12/08 02:30:00;;;;;;;21.45;20.55;;;2.20;93.80;;;;;;5027866;28;20041;-84
2022/12/08 02:32:44;;;;;;;22.13;21.23;;;2.20;93.80;;;;;;5011546;28;20037;-84
2022/12/08 02:35:12;;;;;;;21.77;20.88;;;2.20;93.80;;;;;;5026820;28;20037;-77
2022/12/08 02:37:40;;;;;;;20.77;19.98;;;2.10;93.80;;;;;;5026936;28;20025;-84
2022/12/08 02:40:06;;;;;;;21.25;20.40;;;2.10;93.80;;;;;;5027769;28;20385;-84
2022/12/08 02:42:58;;;;;;;21.50;20.63;;;2.10;93.80;;;;;;5026341;28;20025;-84
2022/12/08 02:45:33;;;;;;;19.73;18.92;;;2.10;93.80;;;;;;5026518;28;20478;-84
2022/12/08 02:47:59;;;;;;;19.98;19.17;;;2.10;93.80;;;;;;5027588;28;20038;-84
2022/12/08 02:50:25;;;;;;;;;;;2.10;93.80;;;;;;5010495;28;20379;-84
2022/12/08 02:52:51;;;;;;;20.70;19.90;;;2.10;93.80;;;;;;5027621;28;19905;-85
2022/12/08 02:55:32;;;;;;;21.00;20.20;;;2.10;93.80;;;;;;5027599;28;20039;-84
2022/12/08 02:58:31;;;;;;;23.33;22.42;;;2.00;93.80;;;;;;5026622;28;20442;-84
2022/12/08 03:00:56;;;;;;;20.60;19.80;;;2.00;93.80;;;;;;5027421;28;20105;-84
2022/12/08 03:03:43;;;;;;;21.38;20.50;;;2.00;93.80;;;;;;5027422;28;20105;-78
2022/12/08 03:06:30;;;;;;;20.35;19.55;;;1.90;93.80;;;;;;5026687;28;20083;-77
2022/12/08 03:09:34;;;;;;;21.00;20.20;;;1.90;93.80;;;;;;5025902;28;20083;-78
2022/12/08 03:12:38;;;;;;;20.25;19.45;;;1.90;93.80;;;;;;5024074;28;20116;-78
2022/12/08 03:15:09;;;;;;;18.65;17.85;;;1.90;93.80;;;;;;5026009;28;20018;-77
2022/12/08 03:17:37;;;;;;;19.40;18.60;;;1.90;93.80;;;;;;5026369;28;20028;-81
2022/12/08 03:20:09;;;;;;;19.08;18.27;;;1.90;93.80;;;;;;5026107;28;20057;-81
2022/12/08 03:22:37;;;;;;;20.05;19.25;;;1.90;93.80;;;;;;5025923;28;20034;-81
2022/12/08 03:25:03;;;;;;;20.40;19.60;;;1.90;93.80;;;;;;5010076;28;20128;-80
2022/12/08 03:27:30;;;;;;;19.90;19.10;;;1.90;93.80;;;;;;5009745;28;20124;-81
2022/12/08 03:29:58;;;;;;;20.50;19.70;;;1.90;93.80;;;;;;5026096;28;20063;-81
2022/12/08 03:32:55;;;;;;;20.02;19.23;;;1.90;93.80;;;;;;5026504;28;20036;-81
2022/12/08 03:35:28;;;;;;;21.48;20.58;;;1.90;93.80;;;;;;5023205;28;20037;-81
2022/12/08 03:38:06;;;;;;;21.77;20.88;;;1.90;93.80;;;;;;5027409;28;20072;-81
2022/12/08 03:40:32;;;;;;;20.10;19.30;;;1.90;93.80;;;;;;5025887;28;20310;-78
2022/12/08 03:42:58;;;;;;;;;;;2.00;93.80;;;;;;5010162;28;20034;-78
2022/12/08 03:45:24;;;;;;;20.63;19.83;;;2.00;93.80;;;;;;5009652;28;19934;-78
2022/12/08 03:47:50;;;;;;;20.33;19.52;;;1.90;93.80;;;;;;5025606;28;20026;-78
2022/12/08 03:50:16;;;;;;;;;;;1.90;93.80;;;;;;5026240;28;20498;-85
2022/12/08 03:52:42;;;;;;;20.10;19.30;;;1.90;93.80;;;;;;5026105;28;19916;-77
2022/12/08 03:55:09;;;;;;;20.60;19.80;;;1.90;93.80;;;;;;5009733;28;20034;-77
2022/12/08 03:57:35;;;;;;;20.70;19.90;;;1.90;93.80;;;;;;5009737;28;20037;-77
2022/12/08 04:00:01;;;;;;;19.23;18.42;;;2.00;93.90;;;;;;5009829;28;20036;-78
2022/12/08 04:02:26;;;;;;;20.80;20.00;;;2.00;93.90;;;;;;5009817;28;20064;-77
2022/12/08 04:04:52;;;;;;;20.90;20.10;;;2.10;94.00;;;;;;5009777;28;20065;-78
2022/12/08 04:07:18;;;;;;;21.48;20.58;;;2.10;94.00;;;;;;5009444;28;20068;-78
2022/12/08 04:09:44;;;;;;;21.50;20.60;;;2.20;94.00;;;;;;5028564;28;20033;-85
2022/12/08 04:12:10;;;;;;;22.45;21.55;;;2.20;94.00;;;;;;5029872;28;20030;-78
2022/12/08 04:14:35;;;;;;;21.77;20.88;;;2.30;94.00;;;;;;5029157;28;20033;-78
2022/12/08 04:17:01;;;;;;;20.77;19.98;;;2.30;94.00;;;;;;5028897;28;20029;-78
2022/12/08 04:19:27;;;;;;;23.15;22.25;;;2.40;94.00;;;;;;5028815;28;20041;-78
2022/12/08 04:21:53;;;;;;;22.65;21.75;;;2.40;94.00;;;;;;5012395;28;20180;-78
2022/12/08 04:24:18;;;;;;;19.83;19.02;;;2.50;94.00;;;;;;5012739;28;20072;-77
2022/12/08 04:26:44;;;;;;;22.40;21.50;;;2.60;94.10;;;;;;4996497;28;20049;-78
2022/12/08 04:29:10;;;;;;;22.80;21.90;;;2.60;94.00;;;;;;5012812;28;20255;-78
2022/12/08 04:31:36;;;;;;;21.02;20.23;;;2.60;94.00;;;;;;5028668;28;20083;-84
2022/12/08 04:34:02;;;;;;;21.50;20.60;;;2.60;94.00;;;;;;5028749;28;20480;-85
2022/12/08 04:36:28;;;;;;;21.05;20.25;;;2.60;94.00;;;;;;5012164;28;20037;-84
2022/12/08 04:38:54;;;;;;;21.48;20.58;;;2.60;94.00;;;;;;5028653;28;20025;-85
2022/12/08 04:41:19;;;;;;;22.83;21.92;;;2.60;94.00;;;;;;4995963;28;20401;-78
2022/12/08 04:43:45;;;;;;;20.15;19.35;;;2.70;94.00;;;;;;4996153;28;20040;-78
2022/12/08 04:46:11;;;;;;;19.95;19.15;;;2.70;94.00;;;;;;5012427;28;20559;-77
2022/12/08 04:48:38;;;;;;;20.08;19.27;;;2.70;94.00;;;;;;5028657;28;20032;-81
2022/12/08 04:51:04;;;;;;;19.10;18.30;;;2.70;94.00;;;;;;5028582;28;20030;-81
2022/12/08 04:53:30;;;;;;;;;;;2.80;94.00;;;;;;5028835;28;20028;-77
2022/12/08 04:55:56;;;;;;;18.50;17.70;;;2.80;94.00;;;;;;5028610;28;19905;-77
2022/12/08 04:58:21;;;;;;;19.92;19.13;;;2.80;94.00;;;;;;5012280;28;20486;-78
2022/12/08 05:00:47;;;;;;;20.15;19.35;;;2.90;94.00;;;;;;5028506;28;20033;-78
2022/12/08 05:03:14;;;;;;;18.00;17.30;;;2.90;94.00;;;;;;5033023;28;20065;-78
2022/12/08 05:05:41;;;;;;;18.63;17.83;;;2.90;94.00;;;;;;5015474;28;20125;-79
2022/12/08 05:08:08;;;;;;;16.15;15.45;;;2.90;94.00;;;;;;5011771;28;20359;-78
2022/12/08 05:10:34;;;;;;;16.65;15.95;;;2.90;94.00;;;;;;5029318;28;20052;-78
2022/12/08 05:12:59;;;;;;;17.02;16.33;;;2.90;94.00;;;;;;5027933;28;20509;-78
2022/12/08 05:15:25;;;;;;;16.70;16.00;;;2.90;94.00;;;;;;4995234;28;20123;-79
2022/12/08 05:17:51;;;;;;;16.45;15.75;;;2.90;93.90;;;;;;5011493;28;20432;-79
2022/12/08 05:20:17;;;;;;;17.73;17.02;;;2.90;94.00;;;;;;5010654;28;20405;-81
2022/12/08 05:22:43;;;;;;;17.85;17.15;;;2.90;94.00;;;;;;5011455;28;20088;-81
2022/12/08 05:25:08;;;;;;;15.13;14.50;;;2.90;94.10;;;;;;5011314;28;20481;-82
2022/12/08 05:27:34;;;;;;;13.63;13.02;;;2.90;94.10;;;;;;5029134;28;20435;-81
2022/12/08 05:30:00;;;;;;;14.80;14.20;;;3.00;94.40;;;;;;5011299;28;20029;-81
2022/12/08 05:32:26;;;;;;;14.40;13.80;;;3.00;94.10;;;;;;5011444;28;20038;-81
2022/12/08 05:34:52;;;;;;;14.20;13.60;;;3.00;94.10;;;;;;5027574;28;20045;-81
2022/12/08 05:37:17;;;;;;;14.02;13.43;;;3.00;94.00;;;;;;5027653;28;20507;-85
2022/12/08 05:39:43;;;;;;;14.80;14.20;;;3.00;94.00;;;;;;5011201;28;20033;-77
2022/12/08 05:42:09;;;;;;;14.02;13.43;;;3.00;94.00;;;;;;5011126;28;20396;-85
2022/12/08 05:44:34;;;;;;;13.68;13.07;;;3.00;94.00;;;;;;4995136;28;20121;-85
2022/12/08 05:47:00;;;;;;;15.40;14.75;;;3.00;94.00;;;;;;5027697;28;20346;-85
2022/12/08 05:49:26;;;;;;;13.00;12.40;;;2.90;94.00;;;;;;4994545;28;20028;-78
2022/12/08 05:51:51;;;;;;;14.43;13.82;;;2.90;94.00;;;;;;5010926;28;20030;-78
2022/12/08 05:54:17;;;;;;;14.43;13.82;;;2.90;94.00;;;;;;4994517;28;20063;-81
2022/12/08 05:56:43;;;;;;;14.80;14.20;;;2.90;94.10;;;;;;5011050;28;20083;-77
2022/12/08 05:59:08;;;;;;;13.07;12.48;;;2.90;94.10;;;;;;5010617;28;20410;-84
2022/12/08 06:01:34;;;;;;;13.32;12.73;;;3.00;94.20;;;;;;5027932;28;20112;-84
2022/12/08 06:04:02;;;;;;;11.85;11.35;;;3.00;94.20;;;;;;5010534;28;20038;-85
2022/12/08 06:06:28;;;;;;;11.88;11.38;;;3.10;94.20;;;;;;5027783;28;20100;-78
2022/12/08 06:08:54;;;;;;;13.18;12.57;;;3.10;94.10;;;;;;5010961;28;20124;-78
2022/12/08 06:11:22;;;;;;;13.32;12.73;;;3.20;94.10;;;;;;5010969;28;20343;-78
2022/12/08 06:13:48;;;;;;;13.90;13.30;;;3.20;94.10;;;;;;5027376;28;20056;-81
2022/12/08 06:16:14;;;;;;;14.15;13.55;;;3.10;94.00;;;;;;5026977;28;20049;-81
2022/12/08 06:18:40;;;;;;;14.23;13.63;;;3.10;94.00;;;;;;5026821;28;20041;-78
2022/12/08 06:21:08;;;;;;;14.75;14.15;;;3.00;94.00;;;;;;4994140;28;20498;-78
2022/12/08 06:23:34;;;;;;;14.73;14.13;;;3.00;94.00;;;;;;5026810;28;20033;-78
2022/12/08 06:26:02;;;;;;;15.20;14.60;;;2.90;94.00;;;;;;5026693;28;20061;-79
2022/12/08 06:28:29;;;;;;;15.63;14.93;;;2.90;94.00;;;;;;5010016;28;20037;-79
2022/12/08 06:30:55;;;;;;;15.90;15.20;;;2.80;94.00;;;;;;5026302;28;20056;-78
2022/12/08 06:33:21;;;;;;;14.07;13.48;;;2.80;94.00;;;;;;5026850;28;20053;-78
2022/12/08 06:35:46;;;;;;;17.48;16.77;;;2.80;94.00;;;;;;5029798;28;20105;-81
2022/12/08 06:38:12;;;;;;;15.60;14.90;;;2.80;94.10;;;;;;4993788;28;20466;-77
2022/12/08 06:40:38;;;;;;;14.88;14.27;;;2.80;94.10;;;;;;5026601;28;20113;-78
2022/12/08 06:43:03;;;;;;;14.75;14.15;;;2.80;94.10;;;;;;5026313;28;20170;-79
2022/12/08 06:45:29;;;;;;;16.40;15.70;;;2.90;94.10;;;;;;5026443;28;20025;-78
2022/12/08 06:47:55;;;;;;;13.95;13.35;;;2.80;94.10;;;;;;4993432;28;20038;-79
2022/12/08 06:50:20;;;;;;;15.35;14.70;;;2.80;94.10;;;;;;4993483;28;20033;-79
2022/12/08 06:52:46;;;;;;;13.70;13.10;;;2.90;94.10;;;;;;4993434;28;20041;-77
2022/12/08 06:55:12;;;;;;;14.07;13.48;;;2.90;94.10;;;;;;5009684;28;20043;-78
2022/12/08 06:57:37;;;;;;;16.33;15.63;;;2.90;94.00;;;;;;5010638;28;20033;-78
2022/12/08 07:00:06;;;;;;;14.50;13.90;;;2.80;94.00;;;;;;5026829;28;20037;-84
2022/12/08 07:02:32;;;;;;;13.75;13.15;;;2.80;94.00;;;;;;5027814;28;20110;-84
2022/12/08 07:04:58;;;;;;;14.77;14.18;;;2.80;94.00;;;;;;5026611;28;20072;-81
2022/12/08 07:07:24;;;;;;;13.40;12.80;;;2.80;94.00;;;;;;5009935;28;20471;-80
2022/12/08 07:09:49;;;;;;;12.73;12.13;;;2.80;94.10;;;;;;5025631;28;20038;-81
2022/12/08 07:12:15;;;;;;;13.50;12.90;;;2.70;94.00;;;;;;5025983;28;20032;-81
2022/12/08 07:14:41;;;;;;;13.98;13.38;;;2.80;94.10;;;;;;5026300;28;20057;-80
2022/12/08 07:17:06;;;;;;;13.27;12.68;;;2.80;94.10;;;;;;4993508;28;20102;-81
2022/12/08 07:19:32;;;;;;;11.52;11.02;;;2.80;94.10;;;;;;5027126;28;20084;-81
2022/12/08 07:21:58;;;;;;;13.10;12.50;;;2.80;94.10;;;;;;5027367;28;20045;-81
2022/12/08 07:24:23;;;;;;;12.70;12.10;;;2.90;94.10;;;;;;4993209;28;20041;-81
2022/12/08 07:26:49;;;;;;;12.63;12.02;;;2.90;94.10;;;;;;5026302;28;20029;-81
2022/12/08 07:29:15;;;;;;;13.05;12.45;;;3.00;94.10;;;;;;5009704;28;20053;-78
2022/12/08 07:31:41;;;;;;;11.50;11.00;;;3.00;94.20;;;;;;5026190;28;20125;-78
2022/12/08 07:34:06;;;;;;;12.75;12.15;;;3.00;94.20;;;;;;5027371;28;20055;-78
2022/12/08 07:36:32;;;;;;;11.32;10.82;;;3.00;94.20;;;;;;5009451;28;20515;-78
2022/12/08 07:38:58;;;;;;;10.88;10.38;;;3.10;94.20;;;;;;5026422;28;20029;-76
2022/12/08 07:41:25;;;;;;;11.50;11.00;;;3.10;94.20;;;;;;5026315;28;20041;-78
2022/12/08 07:43:52;;;;;;;12.48;11.88;;;3.10;94.20;;;;;;5011282;28;20029;-78
2022/12/08 07:46:20;;;;;;;11.57;11.07;;;3.20;94.20;;;;;;5030931;28;20358;-77
2022/12/08 07:48:46;;;;;;;12.27;11.73;;;3.20;94.20;;;;;;5031060;28;20427;-78
2022/12/08 07:51:14;;;;;;;13.07;12.48;;;3.30;94.30;;;;;;5031032;28;20431;-78
2022/12/08 07:53:41;;;;;;;12.25;11.73;;;3.30;94.30;;;;;;5013216;28;20078;-77
2022/12/08 07:56:08;;;;;;;11.23;10.73;;;3.30;94.20;;;;;;5029469;28;20033;-79
2022/12/08 07:58:34;;;;;;;11.80;11.30;;;3.40;94.30;;;;;;5030606;28;20494;-77
2022/12/08 08:01:00;;;;;;;12.48;11.88;;;3.40;94.20;;;;;;5012992;28;20509;-78
2022/12/08 08:03:26;;;;;;;13.30;12.70;;;3.40;94.20;;;;;;5029858;28;20029;-78
2022/12/08 08:05:52;;;;;;;11.13;10.63;;;3.50;94.20;;;;;;5016393;28;20033;-78
2022/12/08 08:08:18;;;;;;;12.15;11.65;;;3.40;94.20;;;;;;5030936;28;20033;-78
2022/12/08 08:10:44;;;;;;;13.07;12.48;;;3.40;94.30;;;;;;5029277;28;20037;-77
2022/12/08 08:13:09;;;;;;;14.50;13.90;;;3.40;94.20;;;;;;5012953;28;20077;-78
2022/12/08 08:15:35;;;;;;;12.80;12.20;;;3.40;94.20;;;;;;5013011;28;20025;-84
2022/12/08 08:18:01;;;;;;;13.00;12.40;;;3.40;94.20;;;;;;5031046;28;20127;-83
2022/12/08 08:20:27;;;;;;;12.65;12.05;;;3.40;94.20;;;;;;5029481;28;20084;-81
2022/12/08 08:22:52;;;;;;;12.13;11.63;;;3.30;94.20;;;;;;5012751;28;20119;-84
2022/12/08 08:25:21;;;;;;;11.30;10.80;;;3.30;94.30;;;;;;5012724;28;20113;-84
2022/12/08 08:27:48;;;;;;;13.15;12.55;;;3.30;94.30;;;;;;5030464;28;20024;-84
2022/12/08 08:30:14;;;;;;;12.45;11.90;;;3.30;94.60;;;;;;5028962;28;20049;-84
2022/12/08 08:32:40;;;;;;;;;;;3.40;94.40;;;;;;5029293;28;20486;-81
2022/12/08 08:35:06;;;;;;;11.98;11.48;;;3.40;94.40;;;;;;5030399;28;19916;-83
2022/12/08 08:37:31;;;;;;;13.05;12.45;;;3.40;94.30;;;;;;5012176;28;20034;-85
2022/12/08 08:39:57;;;;;;;14.60;14.00;;;3.40;94.50;;;;;;5029099;28;20049;-84
2022/12/08 08:42:23;;;;;;;14.25;13.65;;;3.40;94.30;;;;;;5031061;28;20474;-83
2022/12/08 08:44:48;;;;;;;13.50;12.90;;;3.30;94.20;;;;;;5030693;28;20040;-82
2022/12/08 08:47:14;;;;;;;12.45;11.85;;;3.30;94.20;;;;;;5030095;28;20026;-84
2022/12/08 08:49:40;;;;;;;12.85;12.25;;;3.30;94.30;;;;;;5030615;28;20093;-84
2022/12/08 08:52:06;;;;;;;13.00;12.40;;;3.30;94.30;;;;;;5029500;28;20026;-78
2022/12/08 08:54:32;;;;;;;13.98;13.38;;;3.30;94.30;;;;;;5010948;28;20037;-77
2022/12/08 08:56:59;;;;;;;13.05;12.45;;;3.30;94.40;;;;;;5028618;28;20021;-77
2022/12/08 08:59:26;;;;;;;11.80;11.30;;;3.30;94.40;;;;;;4996162;28;20034;-77
2022/12/08 09:01:52;;;;;;;11.70;11.20;;;3.30;94.40;;;;;;5028190;28;20111;-77
2022/12/08 09:04:18;;;;;;;14.30;13.70;;;3.30;94.40;;;;;;5030104;28;20029;-78
2022/12/08 09:06:44;;;;;;;;;;;3.30;94.40;;;;;;5039685;28;20076;-87
2022/12/08 09:09:10;;;;;;;13.02;12.43;;;3.30;94.40;;;;;;5019492;28;19909;-77
2022/12/08 09:11:36;;;;;;;12.00;11.50;;;3.30;94.30;;;;;;5035837;28;20025;-77
2022/12/08 09:14:03;;;;;;;12.68;12.07;;;3.30;94.30;;;;;;5019669;28;20039;-77
2022/12/08 09:16:28;;;;;;;14.13;13.52;;;3.30;94.40;;;;;;5020759;28;20555;-77
2022/12/08 09:18:54;;;;;;;13.95;13.35;;;3.30;94.40;;;;;;5004618;28;20041;-85
2022/12/08 09:21:23;;;;;;;12.93;12.32;;;3.40;94.40;;;;;;5025729;28;20099;-77
2022/12/08 09:23:50;;;;;;;11.95;11.45;;;3.40;94.50;;;;;;5037093;28;20067;-77
2022/12/08 09:26:16;;;;;;;11.27;10.77;;;3.60;94.50;;;;;;5038979;28;20021;-77
2022/12/08 09:28:45;;;;;;;11.50;11.00;;;3.60;94.50;;;;;;5037042;28;20041;-83
2022/12/08 09:31:12;;;;;;;10.45;9.95;;;3.70;94.50;;;;;;5021662;28;20074;-80
2022/12/08 09:33:38;;;;;;;9.45;9.00;;;3.80;94.50;;;;;;5020313;28;20040;-78
2022/12/08 09:36:04;;;;;;;10.00;9.50;;;3.90;94.50;;;;;;5037392;28;20028;-85
2022/12/08 09:38:31;;;;;;;9.40;8.95;;;4.00;94.50;;;;;;5041295;28;20032;-77
2022/12/08 09:40:58;;;;;;;10.10;9.60;;;4.10;94.40;;;;;;5021127;28;20029;-76
2022/12/08 09:43:43;;;;;;;9.70;9.20;;;4.10;94.40;;;;;;5037550;28;20041;-77
2022/12/08 09:46:12;;;;;;;9.15;8.75;;;4.20;94.40;;;;;;5034898;28;20013;-77
2022/12/08 09:48:45;;;;;;;10.40;9.90;;;4.20;94.50;;;;;;5018996;28;20117;-77
2022/12/08 09:51:13;;;;;;;8.95;8.55;;;4.30;94.50;;;;;;5038909;28;20028;-77
2022/12/08 09:53:49;;;;;;;8.80;8.40;;;4.40;94.50;;;;;;5035742;28;20122;-77
2022/12/08 09:56:21;;;;;;;9.73;9.23;;;4.40;94.40;;;;;;5038627;28;20032;-77
2022/12/08 09:59:01;;;;;;;9.10;8.70;;;4.50;94.40;;;;;;5035568;28;20118;-77
2022/12/08 10:01:30;;;;;;;8.88;8.48;;;4.50;94.40;;;;;;5042494;28;20021;-77
2022/12/08 10:03:56;;;;;;;7.25;6.85;;;4.60;94.50;;;;;;5045703;28;20029;-77
2022/12/08 10:06:54;;;;;;;8.43;8.02;;;4.70;94.50;;;;;;5029104;28;20029;-76
2022/12/08 10:09:40;;;;;;;7.70;7.30;;;4.70;94.50;;;;;;5046007;28;20112;-77
2022/12/08 10:12:36;;;;;;;8.95;8.55;;;4.80;94.60;;;;;;5028168;28;20109;-76
2022/12/08 10:15:38;;;;;;;9.30;8.88;;;4.90;94.60;;;;;;5037866;28;20108;-76
2022/12/08 10:18:18;;;;;;;9.05;8.65;;;5.00;94.60;;;;;;5049471;28;20021;-76
2022/12/08 10:20:47;;;;;;;7.45;7.05;;;5.00;94.50;;;;;;5045119;28;20041;-75
2022/12/08 10:23:35;;;;;;;8.40;8.00;;;5.10;94.50;;;;;;5039753;28;20091;-76
2022/12/08 10:26:10;;;;;;;8.27;7.88;;;5.10;94.50;;;;;;5037254;28;20025;-76
2022/12/08 10:28:36;;;;;;;7.75;7.35;;;5.10;94.70;;;;;;5043329;28;20017;-76
2022/12/08 10:31:02;;;;;;;7.70;7.30;;;5.10;94.40;;;;;;5032625;28;20033;-76
2022/12/08 10:33:32;;;;;;;8.02;7.63;;;5.10;94.50;;;;;;5043136;28;20045;-74
2022/12/08 10:36:01;;;;;;;7.60;7.20;;;5.10;94.50;;;;;;5037520;28;20025;-75
2022/12/08 10:38:34;;;;;;;8.30;7.90;;;5.10;94.60;;;;;;5029440;28;20025;-75
2022/12/08 10:41:09;;;;;;;7.30;6.90;;;5.20;94.60;;;;;;5039599;28;20021;-76
2022/12/08 10:43:48;;;;;;;6.10;5.80;;;5.30;94.60;;;;;;5049360;28;20024;-76
2022/12/08 10:46:16;;;;;;;7.65;7.25;;;5.40;94.70;;;;;;5045499;28;20049;-76
2022/12/08 10:49:04;;;;;;;7.20;6.80;;;5.40;94.70;;;;;;5048025;28;20017;-76
2022/12/08 10:51:50;;;;;;;7.10;6.70;;;5.50;94.70;;;;;;5029436;28;20071;-77
2022/12/08 10:54:33;;;;;;;6.10;5.80;;;5.50;94.60;;;;;;5046195;28;20134;-76
2022/12/08 10:56:59;;;;;;;5.15;4.85;;;5.50;94.60;;;;;;5032441;28;20113;-76
2022/12/08 10:59:25;;;;;;;4.35;4.05;;;5.60;94.90;;;;;;5033671;28;20061;-76
2022/12/08 11:01:53;;;;;;;4.50;4.20;;;5.80;95.00;;;;;;5036621;28;20091;-76
2022/12/08 11:04:23;;;;;;;4.22;3.92;;;5.90;95.00;;;;;;5038369;28;20040;-76
2022/12/08 11:06:50;;;;;;;4.70;4.40;;;6.00;95.00;;;;;;5040455;28;20036;-77
2022/12/08 11:09:16;;;;;;;3.70;3.40;;;6.10;95.00;;;;;;5049136;28;20473;-75
2022/12/08 11:11:57;;;;;;;4.30;4.00;;;6.30;95.10;;;;;;5039539;28;20103;-77
2022/12/08 11:14:57;;;;;;;4.10;3.80;;;6.50;95.30;;;;;;5034197;28;20048;-77
2022/12/08 11:17:28;;;;;;;3.75;3.45;;;6.60;95.10;;;;;;5037569;28;20051;-78
2022/12/08 11:20:24;;;;;;;3.90;3.60;;;6.70;95.00;;;;;;5041691;28;20049;-78
2022/12/08 11:22:53;;;;;;;3.65;3.35;;;6.80;95.00;;;;;;5032260;28;20041;-76
2022/12/08 11:25:26;;;;;;;4.18;3.88;;;6.80;95.10;;;;;;5040377;28;20052;-77
2022/12/08 11:27:55;;;;;;;2.97;2.78;;;6.90;95.20;;;;;;5043844;28;20032;-78
2022/12/08 11:30:37;;;;;;;3.05;2.85;;;7.10;95.30;;;;;;5037853;28;20024;-74
2022/12/08 11:33:26;;;;;;;2.70;2.50;;;7.30;95.30;;;;;;5033905;28;20113;-79
2022/12/08 11:36:02;;;;;;;3.00;2.80;;;7.30;95.00;;;;;;5053397;28;20074;-75
2022/12/08 11:38:30;;;;;;;4.10;3.80;;;7.20;94.70;;;;;;5043217;28;20025;-79
2022/12/08 11:41:21;;;;;;;4.05;3.75;;;7.00;94.60;;;;;;5034711;28;20074;-78
2022/12/08 11:44:08;;;;;;;3.58;3.28;;;6.80;94.50;;;;;;5041849;28;20128;-78
2022/12/08 11:46:47;;;;;;;3.70;3.40;;;6.60;94.50;;;;;;5037512;28;20116;-74
2022/12/08 11:49:13;;;;;;;4.15;3.85;;;6.50;94.60;;;;;;5042555;28;20031;-78
2022/12/08 11:52:04;;;;;;;4.05;3.75;;;6.50;94.80;;;;;;5036775;28;20040;-75
2022/12/08 11:54:38;;;;;;;3.45;3.15;;;6.60;95.00;;;;;;5046076;28;20029;-75
2022/12/08 11:57:09;;;;;;;4.30;4.00;;;6.80;95.20;;;;;;5044810;28;20086;-80
2022/12/08 11:59:45;;;;;;;4.25;3.95;;;6.90;95.10;;;;;;5051849;28;20024;-76
2022/12/08 12:02:20;;;;;;;3.72;3.42;;;7.10;95.10;;;;;;5038756;28;20029;-77
2022/12/08 12:04:55;;;;;;;3.95;3.65;;;7.30;95.10;;;;;;5040782;28;20075;-76
2022/12/08 12:07:36;;;;;;;3.22;3.03;;;7.30;95.10;;;;;;5031482;28;20018;-78
2022/12/08 12:10:13;;;;;;;2.60;2.40;;;7.40;95.10;;;;;;5037121;28;20022;-78
2022/12/08 12:12:57;;;;;;;3.05;2.85;;;7.50;95.10;;;;;;5043465;28;20029;-81
2022/12/08 12:15:41;;;;;;;3.08;2.88;;;7.50;95.00;;;;;;5050714;28;20050;-79
2022/12/08 12:18:25;;;;;;;2.47;2.28;;;7.40;94.90;;;;;;5042001;28;20069;-78
2022/12/08 12:21:00;;;;;;;2.15;1.98;;;7.30;94.80;;;;;;5049209;28;20380;-78
2022/12/08 12:23:53;;;;;;;2.47;2.28;;;7.20;95.00;;;;;;5051849;28;20052;-79
2022/12/08 12:26:23;;;;;;;1.80;1.70;;;7.10;95.10;;;;;;5050612;28;20534;-77
2022/12/08 12:29:00;;;;;;;2.30;2.10;;;7.00;95.10;;;;;;5053361;28;20074;-80
2022/12/08 12:31:46;;;;;;;2.25;2.05;;;7.00;95.20;;;;;;5033035;28;20013;-77
2022/12/08 12:34:23;;;;;;;2.40;2.20;;;6.90;95.10;;;;;;5040716;28;20055;-80
2022/12/08 12:36:57;;;;;;;1.90;1.80;;;6.70;95.00;;;;;;5051480;28;20196;-75
2022/12/08 12:39:27;;;;;;;2.20;2.00;;;6.50;95.00;;;;;;5050300;28;20089;-79
2022/12/08 12:41:56;;;;;;;2.33;2.13;;;6.30;95.00;;;;;;5052241;28;20082;-76
2022/12/08 12:44:28;;;;;;;2.25;2.05;;;6.20;95.00;;;;;;5049104;28;20032;-78
2022/12/08 12:47:02;;;;;;;2.75;2.55;;;6.00;95.00;;;;;;5031594;28;20017;-79
2022/12/08 12:49:42;;;;;;;2.38;2.17;;;5.90;95.00;;;;;;5031687;28;20128;-80
2022/12/08 12:52:14;;;;;;;2.30;2.10;;;5.80;95.10;;;;;;5033038;28;20013;-76
2022/12/08 12:55:03;;;;;;;1.95;1.85;;;5.70;95.10;;;;;;5032492;28;20052;-79
2022/12/08 12:57:38;;;;;;;2.70;2.50;;;5.70;95.10;;;;;;5031166;28;20088;-76
2022/12/08 13:00:03;;;;;;;2.20;2.00;;;5.60;95.20;;;;;;5029864;28;20075;-77
2022/12/08 13:02:29;;;;;;;2.40;2.20;;;5.70;95.40;;;;;;5030590;28;20029;-77
2022/12/08 13:05:14;;;;;;;1.60;1.50;;;5.70;95.40;;;;;;5029071;28;20026;-76
2022/12/08 13:07:48;;;;;;;1.70;1.60;;;5.70;95.30;;;;;;5030523;28;20139;-76